Vineland (AU8), Ontario

11:08 PM EDT on May 29, 2017 (GMT -0400)
Cherry Ave | | Change Station

Elev 433 ft 43.16 °N, 79.41 °W | Updated 3 seconds ago

Partly Cloudy
Partly Cloudy
63.9 °F
Feels Like 63.9 °F
N
8.1
Wind Variable Wind from SSW
Gusts 9.8 mph

Today
High -- | Low -- °F
--% Chance of Precip.
Yesterday
High -- | Low -- °F
Precip. -- in
Pressure 29.84 in
Visibility 15.0 miles
Clouds Scattered Clouds 7000 ft
Mostly Cloudy 17000 ft
Dew Point 51 °F
Humidity 62%
Rainfall 0.07 in
Snow Depth Not available.
5:42 AM 8:48 PM
Waxing Crescent, 25% visible
METAR CYSN 300100Z 21009KT 15SM SCT070 BKN170 20/09 A2984 RMK AC4AC3 OCNL LTGCC DIST N CVCTV CLD EMBD N LAST STFD OBS/NEXT 301100 UTC SLP105 DENSITY ALT 1000FT
Pressure 29.84 in
Visibility 15.0 miles
Clouds Scattered Clouds 7000 ft
Mostly Cloudy 17000 ft
Dew Point 51 °F
Humidity 62%
Rainfall 0.07 in
Snow Depth Not available.
5:42 AM 8:48 PM
Waxing Crescent, 25% visible
METAR CYSN 300100Z 21009KT 15SM SCT070 BKN170 20/09 A2984 RMK AC4AC3 OCNL LTGCC DIST N CVCTV CLD EMBD N LAST STFD OBS/NEXT 301100 UTC SLP105 DENSITY ALT 1000FT

Get Severe Weather Alerts

Thanks for signing up!

Be on the lookout for a verification email in your inbox.

You'll start receiving the daily forecast at 6 AM.

×

10-Day Weather Forecast

Almanac

Astronomy

May. 29, 2017 Rise Set
Actual Time
Civil Twilight
Nautical Twilight
Astronomical Twilight
Moon
Length of Visible Light
Length of Day
Tomorrow will be .
, % of the Moon is Illuminated

Today's Extremes

Country Highs Country Lows

Community

WunderPhotos

Category 6

Welcome to Category 6. This is the collective home for Weather Underground's featured writeups by Dr. Jeff Masters (right), Bob Henson (left), Chris Burt, and other regular contributors.

Nearby

Air Quality

  Air Quality AQ Index Pollutant
Not available.

Snow Depth

Station Depth Elevation

Earthquake Activity

City Distance Mag. Time & Date
Minimum magnitude displayed is 2.5.

Coastal Water Temperatures

Place Temperature

Stations

Nearby Weather Stations

Station Location Temp. Windchill Dew Point Humidity Wind Precip. Elev Updated Type
                   

Watches & Warnings

There are currently no watches in effect.